Time;durP1;ratioP1;P1;durP2;ratioP2;P2;SDS_P1;SDS_P2;PMS_P1;PMS_P2;Temp;Humidity;BMP_temperature;BMP_pressure;BME280_temperature;BME280_humidity;BME280_pressure;Samples;Min_cycle;Max_cycle;Signal;HPM_P1;HPM_P2
2021/08/06 00:01:16;;;;;;;;;;;15.50;90.30;;;;;;5013314;28;19918;-69
2021/08/06 00:03:42;;;;;;;;;;;15.40;90.40;;;;;;5012963;28;20075;-69
2021/08/06 00:06:07;;;;;;;;;;;15.40;90.40;;;;;;5013195;28;20016;-69
2021/08/06 00:08:33;;;;;;;;;;;15.30;90.50;;;;;;5013125;28;20001;-69
2021/08/06 00:10:59;;;;;;;;;;;15.30;90.50;;;;;;5012900;28;19984;-69
2021/08/06 00:13:25;;;;;;;;;;;15.30;90.50;;;;;;5013109;28;19924;-70
2021/08/06 00:15:51;;;;;;;;;;;15.30;90.60;;;;;;5012763;28;19993;-68
2021/08/06 00:18:17;;;;;;;;;;;15.30;90.60;;;;;;5012989;28;20381;-69
2021/08/06 00:20:43;;;;;;;;;;;15.20;90.70;;;;;;5011756;28;19924;-69
2021/08/06 00:23:08;;;;;;;;;;;15.20;90.70;;;;;;5012466;28;20332;-69
2021/08/06 00:25:34;;;;;;;;;;;15.20;90.70;;;;;;5011637;28;20332;-69
2021/08/06 00:27:59;;;;;;;;;;;15.10;90.70;;;;;;5011278;28;19918;-69
2021/08/06 00:30:26;;;;;;;;;;;15.10;90.80;;;;;;5011159;28;19944;-69
2021/08/06 00:32:53;;;;;;;;;;;15.10;90.90;;;;;;5011569;28;20319;-69
2021/08/06 00:35:24;;;;;;;;;;;15.00;90.90;;;;;;4995171;28;19918;-68
2021/08/06 00:37:51;;;;;;;;;;;15.00;91.00;;;;;;5011383;28;20043;-70
2021/08/06 00:40:17;;;;;;;;;;;15.00;91.00;;;;;;5011480;28;20426;-70
2021/08/06 00:42:44;;;;;;;;;;;15.00;91.00;;;;;;5010876;28;19975;-70
2021/08/06 00:45:18;;;;;;;;;;;15.00;91.10;;;;;;5011431;28;19917;-70
2021/08/06 00:47:45;;;;;;;;;;;15.00;91.10;;;;;;5010745;28;20484;-67
2021/08/06 00:50:12;;;;;;;;;;;14.90;91.10;;;;;;5011088;28;19917;-70
2021/08/06 00:52:38;;;;;;;;;;;15.00;91.10;;;;;;5010907;28;19924;-70
2021/08/06 00:55:05;;;;;;;;;;;14.90;91.10;;;;;;5039230;22;20396;-60
2021/08/06 00:57:34;;;;;;;;;;;14.90;91.20;;;;;;5030327;28;20569;-60
2021/08/06 01:00:11;;;;;;;;;;;14.90;91.20;;;;;;5030260;28;19920;-60
2021/08/06 01:02:43;;;;;;;;;;;14.90;91.50;;;;;;5030707;28;19924;-60
2021/08/06 01:05:12;;;;;;;;;;;14.80;91.20;;;;;;5014000;28;19917;-61
2021/08/06 01:07:54;;;;;;;;;;;14.90;91.40;;;;;;5030206;28;19928;-60
2021/08/06 01:10:23;;;;;;;;;;;14.80;91.30;;;;;;5030157;28;19940;-60
2021/08/06 01:12:56;;;;;;;;;;;14.80;91.40;;;;;;5030547;28;20340;-60
2021/08/06 01:15:24;;;;;;;;;;;14.80;91.40;;;;;;5029886;28;19964;-60
2021/08/06 01:17:52;;;;;;;;;;;14.80;91.50;;;;;;5030065;28;19944;-60
2021/08/06 01:20:23;;;;;;;;;;;14.80;91.50;;;;;;5030304;28;20192;-60
2021/08/06 01:23:00;;;;;;;;;;;14.80;91.80;;;;;;5029442;28;19940;-60
2021/08/06 01:25:45;;;;;;;;;;;14.80;91.80;;;;;;5029674;28;19917;-61
2021/08/06 01:28:14;;;;;;;;;;;14.90;91.70;;;;;;5046590;28;20396;-60
2021/08/06 01:30:42;;;;;;;;;;;14.90;91.60;;;;;;5030147;28;19971;-60
2021/08/06 01:33:08;;;;;;;;;;;14.80;91.70;;;;;;5029831;28;19956;-60
2021/08/06 01:35:33;;;;;;;;;;;14.80;91.90;;;;;;5030152;28;19964;-60
2021/08/06 01:38:00;;;;;;;;;;;14.80;91.90;;;;;;5029482;28;19921;-61
2021/08/06 01:40:26;;;;;;;;;;;14.80;91.90;;;;;;5030241;28;19913;-60
2021/08/06 01:43:03;;;;;;;;;;;14.80;91.90;;;;;;5030117;28;19917;-60
2021/08/06 01:45:32;;;;;;;;;;;14.80;92.00;;;;;;5047204;28;19917;-60
2021/08/06 01:47:59;;;;;;;;;;;14.80;92.10;;;;;;5033987;28;20016;-60
2021/08/06 01:50:36;;;;;;;;;;;14.90;92.30;;;;;;5035317;28;19921;-60
2021/08/06 01:53:10;;;;;;;;;;;14.90;92.20;;;;;;5034189;28;19917;-60
2021/08/06 01:55:50;;;;;;;;;;;14.90;92.30;;;;;;5020283;28;19921;-60
2021/08/06 01:58:17;;;;;;;;;;;15.00;92.30;;;;;;5050348;28;19918;-60
2021/08/06 02:00:52;;;;;;;;;;;15.00;92.30;;;;;;5050340;28;20415;-60
2021/08/06 02:03:18;;;;;;;;;;;15.10;92.30;;;;;;5033897;28;19917;-60
2021/08/06 02:05:50;;;;;;;;;;;15.00;92.20;;;;;;5034130;28;19924;-60
2021/08/06 02:08:18;;;;;;;;;;;15.00;92.20;;;;;;5033623;28;19917;-60
2021/08/06 02:10:47;;;;;;;;;;;15.00;92.20;;;;;;5050404;28;19917;-60
2021/08/06 02:13:15;;;;;;;;;;;15.00;92.20;;;;;;5033333;28;19923;-60
2021/08/06 02:15:42;;;;;;;;;;;14.90;92.20;;;;;;5033605;28;19923;-60
2021/08/06 02:18:13;;;;;;;;;;;14.90;92.20;;;;;;5033007;28;19919;-60
2021/08/06 02:20:51;;;;;;;;;;;14.90;92.20;;;;;;5033571;28;19953;-60
2021/08/06 02:23:18;;;;;;;;;;;14.80;92.20;;;;;;5033087;28;19959;-60
2021/08/06 02:25:44;;;;;;;;;;;14.80;92.30;;;;;;5050083;28;19917;-60
2021/08/06 02:28:10;;;;;;;;;;;14.80;92.50;;;;;;5032746;28;20381;-62
2021/08/06 02:30:41;;;;;;;;;;;14.80;92.60;;;;;;5033443;28;19920;-60
2021/08/06 02:33:06;;;;;;;;;;;14.90;92.90;;;;;;5033231;28;20385;-60
2021/08/06 02:35:32;;;;;;;;;;;14.90;92.60;;;;;;5032873;28;20031;-60
2021/08/06 02:37:58;;;;;;;;;;;14.90;92.60;;;;;;5032952;28;19925;-60
2021/08/06 02:40:23;;;;;;;;;;;15.00;92.60;;;;;;5033357;28;19917;-60
2021/08/06 02:42:50;;;;;;;;;;;15.00;92.60;;;;;;5032937;28;19917;-60
2021/08/06 02:45:16;;;;;;;;;;;15.00;92.70;;;;;;5034645;28;19917;-60
2021/08/06 02:47:43;;;;;;;;;;;15.00;92.70;;;;;;5033794;28;20300;-61
2021/08/06 02:50:09;;;;;;;;;;;15.00;92.70;;;;;;5033026;28;20292;-60
2021/08/06 02:52:35;;;;;;;;;;;15.00;92.80;;;;;;5034417;28;19918;-62
2021/08/06 02:55:00;;;;;;;;;;;15.10;92.90;;;;;;5032422;28;19927;-60
2021/08/06 02:57:26;;;;;;;;;;;15.10;92.90;;;;;;5032600;28;19964;-60
2021/08/06 02:59:52;;;;;;;;;;;15.10;92.90;;;;;;5033069;28;19924;-60
2021/08/06 03:02:21;;;;;;;;;;;15.20;92.90;;;;;;5032513;28;19917;-60
2021/08/06 03:04:48;;;;;;;;;;;15.20;93.00;;;;;;5032747;28;19917;-60
2021/08/06 03:07:15;;;;;;;;;;;15.20;93.00;;;;;;5032055;28;19925;-60
2021/08/06 03:09:40;;;;;;;;;;;15.30;93.00;;;;;;5032698;28;19917;-60
2021/08/06 03:12:06;;;;;;;;;;;15.30;92.90;;;;;;5032719;28;19917;-60
2021/08/06 03:14:36;;;;;;;;;;;15.30;92.90;;;;;;5032090;28;19921;-60
2021/08/06 03:17:02;;;;;;;;;;;15.30;92.90;;;;;;5032222;28;19948;-60
2021/08/06 03:19:30;;;;;;;;;;;15.30;92.80;;;;;;5032141;28;19948;-60
2021/08/06 03:21:57;;;;;;;;;;;15.30;92.80;;;;;;5016185;28;19921;-60
2021/08/06 03:24:23;;;;;;;;;;;15.30;92.90;;;;;;5032459;28;20007;-60
2021/08/06 03:26:49;;;;;;;;;;;15.20;92.90;;;;;;5048384;28;20013;-61
2021/08/06 03:29:17;;;;;;;;;;;15.20;92.90;;;;;;5032203;28;19917;-60
2021/08/06 03:31:43;;;;;;;;;;;15.20;92.90;;;;;;5032247;28;19917;-60
2021/08/06 03:34:08;;;;;;;;;;;15.20;92.90;;;;;;5033205;28;19917;-60
2021/08/06 03:36:34;;;;;;;;;;;15.20;92.90;;;;;;5032282;28;19917;-60
2021/08/06 03:39:00;;;;;;;;;;;15.10;92.90;;;;;;5031818;28;20003;-60
2021/08/06 03:41:26;;;;;;;;;;;15.20;93.00;;;;;;5032228;28;19957;-62
2021/08/06 03:43:56;;;;;;;;;;;15.10;92.90;;;;;;5031807;28;19921;-60
2021/08/06 03:46:22;;;;;;;;;;;15.10;92.90;;;;;;5031460;28;19986;-60
2021/08/06 03:48:48;;;;;;;;;;;15.00;93.00;;;;;;5048349;28;20373;-60
2021/08/06 03:51:14;;;;;;;;;;;15.10;93.10;;;;;;5031559;28;19917;-61
2021/08/06 03:53:40;;;;;;;;;;;15.00;93.00;;;;;;5031671;28;20378;-60
2021/08/06 03:56:06;;;;;;;;;;;15.10;93.00;;;;;;5033233;28;19925;-62
2021/08/06 03:58:31;;;;;;;;;;;15.00;92.90;;;;;;5030883;28;19921;-63
2021/08/06 04:00:57;;;;;;;;;;;15.00;93.00;;;;;;5031628;28;19992;-62
2021/08/06 04:03:23;;;;;;;;;;;15.00;93.10;;;;;;5048361;28;19917;-62
2021/08/06 04:05:49;;;;;;;;;;;15.00;93.20;;;;;;5031152;28;20031;-62
2021/08/06 04:08:17;;;;;;;;;;;15.00;93.10;;;;;;5030843;28;20004;-62
2021/08/06 04:10:49;;;;;;;;;;;15.00;93.10;;;;;;5031094;28;20297;-62
2021/08/06 04:13:14;;;;;;;;;;;15.00;93.10;;;;;;5048105;28;19917;-62
2021/08/06 04:15:40;;;;;;;;;;;15.00;93.20;;;;;;5031210;28;19943;-62
2021/08/06 04:18:06;;;;;;;;;;;14.90;93.10;;;;;;5030809;28;19921;-62
2021/08/06 04:20:31;;;;;;;;;;;15.00;93.20;;;;;;5031163;28;19975;-62
2021/08/06 04:22:57;;;;;;;;;;;14.90;93.10;;;;;;5031391;28;19943;-62
2021/08/06 04:25:23;;;;;;;;;;;14.90;93.20;;;;;;5030877;28;19917;-62
2021/08/06 04:27:50;;;;;;;;;;;14.90;93.30;;;;;;5030865;28;20017;-62
2021/08/06 04:30:16;;;;;;;;;;;15.00;93.30;;;;;;5030876;28;20440;-62
2021/08/06 04:32:41;;;;;;;;;;;15.00;93.30;;;;;;5032550;28;19917;-60
2021/08/06 04:35:07;;;;;;;;;;;15.00;93.30;;;;;;5014516;28;19913;-60
2021/08/06 04:37:32;;;;;;;;;;;15.00;93.40;;;;;;5030368;28;19924;-60
2021/08/06 04:39:58;;;;;;;;;;;15.00;93.60;;;;;;5032454;28;20365;-60
2021/08/06 04:42:24;;;;;;;;;;;15.00;93.40;;;;;;5014237;28;20044;-60
2021/08/06 04:44:50;;;;;;;;;;;15.10;93.40;;;;;;5030726;28;19949;-60
2021/08/06 04:47:16;;;;;;;;;;;15.10;93.40;;;;;;5030510;28;19921;-60
2021/08/06 04:49:41;;;;;;;;;;;15.10;93.40;;;;;;5030415;28;19918;-62
2021/08/06 04:52:08;;;;;;;;;;;15.20;93.50;;;;;;5025027;28;19925;-60
2021/08/06 04:54:34;;;;;;;;;;;15.20;93.40;;;;;;5010109;28;20293;-60
2021/08/06 04:57:00;;;;;;;;;;;15.30;93.40;;;;;;5013587;28;19922;-60
2021/08/06 04:59:27;;;;;;;;;;;15.30;93.40;;;;;;5036828;28;19928;-60
2021/08/06 05:01:53;;;;;;;;;;;15.30;93.70;;;;;;5010336;28;19992;-60
2021/08/06 05:04:18;;;;;;;;;;;15.40;93.50;;;;;;4992149;28;19929;-61
2021/08/06 05:06:44;;;;;;;;;;;15.40;93.50;;;;;;5026720;28;19933;-60
2021/08/06 05:09:09;;;;;;;;;;;15.40;93.40;;;;;;5009630;28;20437;-61
2021/08/06 05:11:36;;;;;;;;;;;15.50;93.50;;;;;;5023700;28;19921;-61
2021/08/06 05:14:01;;;;;;;;;;;15.60;93.50;;;;;;5011648;28;20004;-62
2021/08/06 05:16:27;;;;;;;;;;;15.70;93.50;;;;;;5026692;28;19956;-61
2021/08/06 05:18:54;;;;;;;;;;;15.70;93.50;;;;;;5010261;28;19940;-60
2021/08/06 05:21:19;;;;;;;;;;;15.80;93.40;;;;;;5009642;28;19917;-60
2021/08/06 05:23:46;;;;;;;;;;;15.90;93.40;;;;;;5009980;28;20448;-60
2021/08/06 05:26:12;;;;;;;;;;;16.00;93.40;;;;;;5007772;28;19921;-59
2021/08/06 05:28:37;;;;;;;;;;;16.10;93.40;;;;;;5009295;28;19918;-61
2021/08/06 05:31:03;;;;;;;;;;;16.20;93.30;;;;;;5001589;28;19917;-60
2021/08/06 05:33:31;;;;;;;;;;;16.30;93.20;;;;;;5004341;28;19932;-59
2021/08/06 05:35:57;;;;;;;;;;;16.40;93.20;;;;;;5034116;28;19948;-60
2021/08/06 05:38:24;;;;;;;;;;;16.50;92.90;;;;;;5008507;28;19918;-60
2021/08/06 05:40:49;;;;;;;;;;;16.70;93.30;;;;;;5025877;28;19918;-60
2021/08/06 05:43:17;;;;;;;;;;;16.90;93.30;;;;;;5008272;28;20370;-60
2021/08/06 05:45:43;;;;;;;;;;;17.10;93.00;;;;;;5026520;28;19923;-62
2021/08/06 05:48:11;;;;;;;;;;;17.40;93.70;;;;;;5026414;28;20003;-62
2021/08/06 05:50:40;;;;;;;;;;;18.00;93.60;;;;;;5010117;28;19918;-62
2021/08/06 05:53:06;;;;;;;;;;;18.80;93.90;;;;;;5010107;28;20585;-62
2021/08/06 05:55:32;;;;;;;;;;;19.90;94.60;;;;;;5009700;28;19921;-63
2021/08/06 05:58:02;;;;;;;;;;;21.10;93.70;;;;;;5026102;28;19925;-63
2021/08/06 06:00:28;;;;;;;;;;;22.20;92.20;;;;;;5026085;28;19929;-63
2021/08/06 06:03:03;;;;;;;;;;;22.90;90.80;;;;;;5009596;28;19921;-61
2021/08/06 06:05:51;;;;;;;;;;;23.50;88.30;;;;;;5009651;28;19924;-61
2021/08/06 06:08:17;;;;;;;;;;;24.30;88.70;;;;;;5009390;28;19918;-62
2021/08/06 06:10:42;;;;;;;;;;;25.10;85.30;;;;;;5011406;28;19917;-61
2021/08/06 06:13:08;;;;;;;;;;;25.60;81.90;;;;;;5010537;28;19960;-62
2021/08/06 06:15:35;;;;;;;;;;;25.90;77.20;;;;;;5025741;28;19971;-62
2021/08/06 06:18:01;;;;;;;;;;;26.20;75.80;;;;;;5042485;28;20004;-62
2021/08/06 06:20:27;;;;;;;;;;;26.60;75.00;;;;;;5028560;28;20016;-62
2021/08/06 06:22:55;;;;;;;;;;;27.10;72.10;;;;;;5029142;28;20450;-62
2021/08/06 06:25:22;;;;;;;;;;;27.30;70.10;;;;;;5045511;28;20016;-62
2021/08/06 06:27:49;;;;;;;;;;;28.00;70.30;;;;;;5043255;28;20377;-62
2021/08/06 06:30:14;;;;;;;;;;;28.80;69.50;;;;;;5044604;28;19925;-62
2021/08/06 06:32:40;;;;;;;;;;;29.60;68.50;;;;;;5032645;28;19917;-62
2021/08/06 06:35:06;;;;;;;;;;;30.30;65.00;;;;;;5032853;28;19917;-62
2021/08/06 06:37:32;;;;;;;;;;;30.60;61.60;;;;;;5019377;28;19921;-62
2021/08/06 06:40:00;;;;;;;;;;;30.90;59.70;;;;;;5012350;28;19918;-62
2021/08/06 06:42:25;;;;;;;;;;;31.50;59.30;;;;;;5009865;28;20297;-63
2021/08/06 06:44:53;;;;;;;;;;;32.00;56.70;;;;;;5009638;28;19933;-62
2021/08/06 06:47:19;;;;;;;;;;;32.00;52.30;;;;;;5009333;28;20371;-62
2021/08/06 06:49:45;;;;;;;;;;;31.70;51.00;;;;;;5033898;28;20306;-62
2021/08/06 06:52:10;;;;;;;;;;;31.30;49.20;;;;;;5021821;28;20416;-62
2021/08/06 06:54:36;;;;;;;;;;;31.40;50.30;;;;;;5006492;28;20308;-65
2021/08/06 06:57:02;;;;;;;;;;;31.50;49.10;;;;;;5014806;28;19918;-65
2021/08/06 06:59:28;;;;;;;;;;;31.70;48.00;;;;;;5028976;28;19936;-65
2021/08/06 07:01:54;;;;;;;;;;;31.80;47.10;;;;;;5029138;28;19917;-64
2021/08/06 07:04:20;;;;;;;;;;;32.10;47.30;;;;;;5013057;28;20008;-66
2021/08/06 07:06:46;;;;;;;;;;;32.60;47.90;;;;;;5011302;28;19922;-65
2021/08/06 07:09:12;;;;;;;;;;;33.60;47.50;;;;;;4995293;28;19928;-65
2021/08/06 07:11:39;;;;;;;;;;;34.10;44.40;;;;;;4992489;28;19964;-66
2021/08/06 07:14:05;;;;;;;;;;;34.10;43.30;;;;;;5012624;28;20416;-65
2021/08/06 07:16:31;;;;;;;;;;;34.30;43.10;;;;;;5010440;28;19921;-65
2021/08/06 07:18:57;;;;;;;;;;;34.80;42.10;;;;;;5011439;28;20436;-65
2021/08/06 07:21:23;;;;;;;;;;;34.90;40.60;;;;;;5012293;28;20038;-65
2021/08/06 07:23:51;;;;;;;;;;;35.00;39.90;;;;;;5011633;28;19929;-65
2021/08/06 07:26:18;;;;;;;;;;;35.10;39.50;;;;;;5011844;28;19973;-65
2021/08/06 07:28:43;;;;;;;;;;;35.00;38.50;;;;;;5011604;28;19924;-65
2021/08/06 07:31:10;;;;;;;;;;;35.00;38.30;;;;;;5011227;28;19952;-65
2021/08/06 07:33:35;;;;;;;;;;;35.10;39.40;;;;;;5011757;28;19949;-65
2021/08/06 07:36:01;;;;;;;;;;;35.60;39.60;;;;;;5012571;28;20370;-65
2021/08/06 07:38:27;;;;;;;;;;;36.10;38.60;;;;;;5011665;28;19944;-66
2021/08/06 07:40:54;;;;;;;;;;;36.70;38.40;;;;;;5011651;28;20294;-65
2021/08/06 07:43:21;;;;;;;;;;;37.50;38.20;;;;;;5010575;28;19924;-65
2021/08/06 07:45:48;;;;;;;;;;;37.70;35.20;;;;;;5013147;28;19917;-66
2021/08/06 07:48:15;;;;;;;;;;;37.40;34.30;;;;;;5011346;28;19918;-66
2021/08/06 07:50:41;;;;;;;;;;;37.20;35.10;;;;;;4994521;28;19933;-65
2021/08/06 07:53:08;;;;;;;;;;;37.40;35.10;;;;;;4994399;28;19967;-66
2021/08/06 07:55:34;;;;;;;;;;;37.90;35.20;;;;;;5010300;28;19928;-65
2021/08/06 07:58:03;;;;;;;;;;;38.80;35.30;;;;;;5011349;28;19917;-66
2021/08/06 08:00:28;;;;;;;;;;;39.10;33.00;;;;;;5011978;28;19924;-66
2021/08/06 08:02:55;;;;;;;;;;;39.30;33.10;;;;;;5011176;28;19918;-66
2021/08/06 08:05:26;;;;;;;;;;;40.00;33.70;;;;;;5016257;28;19921;-66
2021/08/06 08:08:10;;;;;;;;;;;40.70;33.20;;;;;;4977603;28;19928;-66
2021/08/06 08:10:37;;;;;;;;;;;41.60;32.30;;;;;;4991986;28;19965;-64
2021/08/06 08:13:03;;;;;;;;;;;42.00;30.70;;;;;;4990562;28;20289;-65
2021/08/06 08:15:29;;;;;;;;;;;42.00;30.10;;;;;;4990807;28;19918;-63
2021/08/06 08:17:56;;;;;;;;;;;41.80;29.50;;;;;;4975641;28;20393;-66
2021/08/06 08:20:21;;;;;;;;;;;41.30;29.20;;;;;;5005890;28;19964;-65
2021/08/06 08:22:47;;;;;;;;;;;40.90;29.20;;;;;;5011261;28;19923;-66
2021/08/06 08:25:13;;;;;;;;;;;40.60;29.50;;;;;;5010770;28;20381;-65
2021/08/06 08:27:39;;;;;;;;;;;41.00;30.00;;;;;;5009776;28;19921;-65
2021/08/06 08:30:06;;;;;;;;;;;41.50;29.60;;;;;;5010891;28;19924;-64
2021/08/06 08:32:34;;;;;;;;;;;41.80;29.60;;;;;;5010502;28;20352;-64
2021/08/06 08:34:59;;;;;;;;;;;41.60;28.60;;;;;;4994348;28;19944;-64
2021/08/06 08:37:25;;;;;;;;;;;41.80;29.60;;;;;;5010564;28;19925;-64
2021/08/06 08:39:50;;;;;;;;;;;42.90;29.60;;;;;;5011567;28;19921;-65
2021/08/06 08:42:17;;;;;;;;;;;43.60;28.70;;;;;;5012087;28;19918;-65
2021/08/06 08:44:43;;;;;;;;;;;44.20;28.20;;;;;;5010486;28;20390;-64
2021/08/06 08:47:08;;;;;;;;;;;44.40;28.00;;;;;;5009800;28;19945;-64
2021/08/06 08:49:38;;;;;;;;;;;44.60;27.80;;;;;;5010239;28;19914;-65
2021/08/06 08:52:04;;;;;;;;;;;44.80;27.70;;;;;;5009933;28;19918;-64
2021/08/06 08:54:29;;;;;;;;;;;45.20;27.00;;;;;;5010146;28;20415;-65
2021/08/06 08:56:55;;;;;;;;;;;45.00;26.90;;;;;;5011532;28;20390;-64
2021/08/06 08:59:23;;;;;;;;;;;45.10;26.50;;;;;;5008141;28;19934;-65
2021/08/06 09:01:48;;;;;;;;;;;44.50;26.30;;;;;;5023292;28;20462;-63
2021/08/06 09:04:17;;;;;;;;;;;43.90;26.30;;;;;;5020367;28;19948;-63
2021/08/06 09:06:44;;;;;;;;;;;43.70;26.30;;;;;;5007633;28;20377;-64
2021/08/06 09:09:22;;;;;;;;;;;43.20;26.20;;;;;;4995323;28;20035;-64
2021/08/06 09:12:12;;;;;;;;;;;43.10;26.90;;;;;;5026894;28;19925;-64
2021/08/06 09:14:49;;;;;;;;;;;43.40;26.80;;;;;;5011100;28;19932;-64
2021/08/06 09:17:15;;;;;;;;;;;43.70;26.30;;;;;;5010992;28;19917;-64
2021/08/06 09:19:44;;;;;;;;;;;43.40;26.20;;;;;;5008228;28;19922;-63
2021/08/06 09:22:17;;;;;;;;;;;43.30;26.20;;;;;;5007226;28;19955;-64
2021/08/06 09:25:01;;;;;;;;;;;43.40;26.80;;;;;;5000226;28;19926;-64
2021/08/06 09:27:28;;;;;;;;;;;44.30;26.70;;;;;;5009838;28;19925;-64
2021/08/06 09:29:55;;;;;;;;;;;44.50;26.20;;;;;;5026648;28;20334;-64
2021/08/06 09:32:23;;;;;;;;;;;44.10;25.70;;;;;;5011193;28;20011;-64
2021/08/06 09:34:49;;;;;;;;;;;43.70;26.30;;;;;;5011428;28;20016;-64
2021/08/06 09:37:18;;;;;;;;;;;43.60;26.10;;;;;;5011140;28;20000;-64
2021/08/06 09:39:47;;;;;;;;;;;43.80;26.60;;;;;;5009866;28;20455;-63
2021/08/06 09:42:27;;;;;;;;;;;44.70;26.60;;;;;;5009760;28;19961;-63
2021/08/06 09:44:56;;;;;;;;;;;44.80;25.70;;;;;;5008335;28;19984;-63
2021/08/06 09:47:22;;;;;;;;;;;44.60;25.70;;;;;;5010968;28;19921;-64
2021/08/06 09:49:49;;;;;;;;;;;45.00;26.30;;;;;;5010937;28;20545;-64
2021/08/06 09:52:15;;;;;;;;;;;46.00;26.40;;;;;;5011345;28;20020;-62
2021/08/06 09:54:46;;;;;;;;;;;47.10;25.90;;;;;;5008068;28;20016;-62
2021/08/06 09:57:12;;;;;;;;;;;47.90;25.70;;;;;;5009255;28;19917;-62
2021/08/06 09:59:38;;;;;;;;;;;48.10;24.90;;;;;;5010187;28;19917;-62
2021/08/06 10:02:13;;;;;;;;;;;48.20;24.90;;;;;;5009407;28;20381;-62
2021/08/06 10:04:38;;;;;;;;;;;48.40;24.30;;;;;;5010542;28;19921;-62
2021/08/06 10:07:04;;;;;;;;;;;47.70;23.80;;;;;;5010993;28;19929;-62
2021/08/06 10:09:30;;;;;;;;;;;46.90;24.00;;;;;;5013886;28;20440;-62
2021/08/06 10:11:55;;;;;;;;;;;46.50;24.50;;;;;;5015273;28;19929;-62
2021/08/06 10:14:21;;;;;;;;;;;46.70;24.50;;;;;;5014258;28;19918;-62
2021/08/06 10:16:46;;;;;;;;;;;46.80;24.30;;;;;;5014969;28;19950;-62
2021/08/06 10:19:15;;;;;;;;;;;47.20;24.60;;;;;;5015033;28;20382;-62
2021/08/06 10:21:41;;;;;;;;;;;47.20;23.80;;;;;;5014441;28;20012;-62
2021/08/06 10:24:07;;;;;;;;;;;46.80;24.10;;;;;;5015018;28;20436;-62
2021/08/06 10:26:33;;;;;;;;;;;47.10;24.60;;;;;;5014935;28;19921;-62
2021/08/06 10:28:59;;;;;;;;;;;47.60;24.40;;;;;;5014578;28;19921;-62
2021/08/06 10:31:25;;;;;;;;;;;48.00;24.20;;;;;;5015045;28;19972;-62
2021/08/06 10:34:10;;;;;;;;;;;47.40;23.60;;;;;;5030039;28;19917;-61
2021/08/06 10:36:40;;;;;;;;;;;45.90;23.90;;;;;;5014425;28;19945;-61
2021/08/06 10:39:25;;;;;;;;;;;45.50;24.60;;;;;;5014681;28;19963;-62
2021/08/06 10:41:52;;;;;;;;;;;45.90;24.70;;;;;;5014442;28;19959;-62
2021/08/06 10:44:17;;;;;;;;;;;46.20;24.80;;;;;;5014599;28;19918;-62
2021/08/06 10:46:52;;;;;;;;;;;45.40;24.40;;;;;;5013847;28;19921;-62
2021/08/06 10:49:18;;;;;;;;;;;45.50;25.40;;;;;;5013043;28;19943;-62
2021/08/06 10:51:43;;;;;;;;;;;46.20;25.20;;;;;;5014039;28;20386;-62
2021/08/06 10:54:09;;;;;;;;;;;47.20;25.20;;;;;;5014239;28;19953;-62
2021/08/06 10:56:37;;;;;;;;;;;48.30;24.60;;;;;;5014385;28;19924;-62
2021/08/06 10:59:13;;;;;;;;;;;48.30;24.00;;;;;;4996115;28;19918;-62
2021/08/06 11:01:45;;;;;;;;;;;46.60;23.50;;;;;;5014311;28;20012;-62
2021/08/06 11:04:16;;;;;;;;;;;44.80;24.70;;;;;;5013696;28;19925;-62
2021/08/06 11:06:46;;;;;;;;;;;44.60;25.50;;;;;;5012603;28;19921;-62
2021/08/06 11:09:24;;;;;;;;;;;44.40;25.20;;;;;;5012552;28;19949;-62
2021/08/06 11:11:50;;;;;;;;;;;44.70;25.10;;;;;;5014090;28;19924;-62
2021/08/06 11:14:36;;;;;;;;;;;45.30;25.60;;;;;;5014052;28;20340;-61
2021/08/06 11:17:07;;;;;;;;;;;44.40;24.90;;;;;;5016104;28;19933;-61
2021/08/06 11:19:34;;;;;;;;;;;42.60;25.30;;;;;;5012647;28;19918;-61
2021/08/06 11:22:00;;;;;;;;;;;41.30;25.60;;;;;;5013816;28;20016;-61
2021/08/06 11:24:26;;;;;;;;;;;39.60;26.50;;;;;;5013638;28;20012;-61
2021/08/06 11:26:52;;;;;;;;;;;40.00;27.90;;;;;;5013351;28;20358;-61
2021/08/06 11:29:18;;;;;;;;;;;41.10;27.60;;;;;;5013173;28;19918;-61
2021/08/06 11:31:44;;;;;;;;;;;42.00;27.40;;;;;;5013682;28;20305;-62
2021/08/06 11:34:09;;;;;;;;;;;42.30;26.90;;;;;;5013136;28;19917;-61
2021/08/06 11:36:35;;;;;;;;;;;43.20;27.00;;;;;;5013103;28;19918;-62
2021/08/06 11:39:14;;;;;;;;;;;44.90;26.80;;;;;;5013324;28;19917;-62
2021/08/06 11:41:49;;;;;;;;;;;46.20;25.70;;;;;;5013262;28;19917;-62
2021/08/06 11:44:15;;;;;;;;;;;47.30;25.30;;;;;;5013496;28;19925;-62
2021/08/06 11:46:45;;;;;;;;;;;48.10;24.80;;;;;;5012882;28;19928;-62
2021/08/06 11:49:10;;;;;;;;;;;48.80;24.80;;;;;;5013275;28;19924;-62
2021/08/06 11:51:50;;;;;;;;;;;49.50;24.40;;;;;;5013099;28;19921;-62
2021/08/06 11:54:15;;;;;;;;;;;49.90;24.00;;;;;;5013182;28;20187;-62
2021/08/06 11:56:41;;;;;;;;;;;47.80;23.00;;;;;;5012986;28;19924;-62
2021/08/06 11:59:07;;;;;;;;;;;45.70;23.70;;;;;;5012612;28;20384;-61
2021/08/06 12:01:33;;;;;;;;;;;44.50;24.30;;;;;;5013157;28;19948;-61
2021/08/06 12:03:59;;;;;;;;;;;43.80;25.00;;;;;;5012641;28;19945;-61
2021/08/06 12:06:25;;;;;;;;;;;42.50;25.00;;;;;;5012927;28;19921;-61
2021/08/06 12:08:51;;;;;;;;;;;40.50;25.20;;;;;;5028131;28;20259;-61
2021/08/06 12:11:18;;;;;;;;;;;38.50;26.40;;;;;;5012607;28;19984;-60
2021/08/06 12:13:49;;;;;;;;;;;37.20;27.20;;;;;;5012792;28;20002;-60
2021/08/06 12:16:23;;;;;;;;;;;36.00;27.90;;;;;;5012414;28;19922;-60
2021/08/06 12:18:49;;;;;;;;;;;34.90;29.00;;;;;;5027824;28;19917;-60
2021/08/06 12:21:19;;;;;;;;;;;34.20;29.70;;;;;;5012554;28;19953;-60
2021/08/06 12:23:46;;;;;;;;;;;33.50;30.70;;;;;;5011531;28;19956;-60
2021/08/06 12:26:41;;;;;;;;;;;33.20;31.90;;;;;;5011519;28;19991;-60
2021/08/06 12:29:19;;;;;;;;;;;33.70;33.00;;;;;;5015656;28;19924;-60
2021/08/06 12:31:55;;;;;;;;;;;33.80;31.70;;;;;;5012163;28;19924;-60
2021/08/06 12:34:28;;;;;;;;;;;33.00;32.00;;;;;;5012513;28;19945;-60
2021/08/06 12:37:04;;;;;;;;;;;32.10;32.50;;;;;;5012276;28;19925;-60
2021/08/06 12:39:32;;;;;;;;;;;31.50;33.60;;;;;;5012498;28;19960;-60
2021/08/06 12:42:18;;;;;;;;;;;30.90;34.50;;;;;;5012477;28;20004;-60
2021/08/06 12:44:57;;;;;;;;;;;30.60;35.60;;;;;;5010863;28;19942;-60
2021/08/06 12:47:23;;;;;;;;;;;30.40;35.50;;;;;;5012184;28;19921;-60
2021/08/06 12:50:03;;;;;;;;;;;29.90;36.00;;;;;;5011805;28;19924;-60
2021/08/06 12:52:30;;;;;;;;;;;29.30;36.90;;;;;;5010964;28;20281;-60
2021/08/06 12:54:56;;;;;;;;;;;28.80;37.70;;;;;;5035244;22;20300;-66
2021/08/06 12:57:41;;;;;;;;;;;28.40;38.30;;;;;;5031874;28;19918;-66
2021/08/06 13:00:13;;;;;;;;;;;28.00;38.80;;;;;;5030322;28;20298;-67
2021/08/06 13:02:39;;;;;;;;;;;27.60;39.40;;;;;;5031857;28;20428;-67
2021/08/06 13:05:11;;;;;;;;;;;27.30;40.20;;;;;;5031789;28;20000;-66
2021/08/06 13:07:37;;;;;;;;;;;27.10;40.60;;;;;;5031276;28;19921;-69
2021/08/06 13:10:43;;;;;;;;;;;27.00;41.30;;;;;;5031262;28;21216;-67
2021/08/06 13:13:11;;;;;;;;;;;27.10;42.40;;;;;;4993007;28;19917;-67
2021/08/06 13:15:37;;;;;;;;;;;27.20;42.20;;;;;;5009664;28;20007;-67
2021/08/06 13:18:02;;;;;;;;;;;27.60;42.70;;;;;;5008655;28;19968;-67
2021/08/06 13:20:28;;;;;;;;;;;28.10;42.90;;;;;;5030430;28;19917;-67
2021/08/06 13:22:53;;;;;;;;;;;28.50;42.20;;;;;;5031563;28;19925;-67
2021/08/06 13:25:19;;;;;;;;;;;28.80;41.70;;;;;;5029679;28;19917;-69
2021/08/06 13:27:45;;;;;;;;;;;28.90;41.30;;;;;;5031388;28;19928;-68
2021/08/06 13:30:12;;;;;;;;;;;28.80;41.40;;;;;;5031528;28;20012;-67
2021/08/06 13:32:38;;;;;;;;;;;28.60;41.40;;;;;;5029631;28;19948;-68
2021/08/06 13:35:04;;;;;;;;;;;28.30;41.50;;;;;;5030153;28;20428;-67
2021/08/06 13:37:30;;;;;;;;;;;27.90;41.80;;;;;;5030827;28;19918;-67
2021/08/06 13:39:55;;;;;;;;;;;27.50;42.50;;;;;;5031445;28;19917;-68
2021/08/06 13:42:21;;;;;;;;;;;27.30;43.00;;;;;;5030677;28;19956;-67
2021/08/06 13:44:47;;;;;;;;;;;27.00;43.30;;;;;;5029590;28;19917;-66
2021/08/06 13:47:12;;;;;;;;;;;26.70;43.60;;;;;;5030030;28;20019;-68
2021/08/06 13:49:39;;;;;;;;;;;26.50;44.10;;;;;;5030136;28;19917;-68
2021/08/06 13:52:05;;;;;;;;;;;26.40;44.40;;;;;;5029578;28;19982;-67
2021/08/06 13:54:30;;;;;;;;;;;26.10;44.80;;;;;;5031164;28;19925;-67
2021/08/06 13:56:56;;;;;;;;;;;25.90;45.30;;;;;;5030818;28;20004;-68
2021/08/06 13:59:23;;;;;;;;;;;25.70;45.80;;;;;;5030254;28;20393;-67
2021/08/06 14:01:49;;;;;;;;;;;25.50;46.60;;;;;;5031335;28;19940;-67
2021/08/06 14:04:15;;;;;;;;;;;25.30;47.50;;;;;;5030593;28;20376;-67
2021/08/06 14:06:40;;;;;;;;;;;25.10;48.50;;;;;;5012919;28;19960;-65
2021/08/06 14:09:06;;;;;;;;;;;24.90;49.80;;;;;;5030710;28;19924;-66
2021/08/06 14:11:32;;;;;;;;;;;24.60;50.80;;;;;;5029890;28;19925;-67
2021/08/06 14:13:57;;;;;;;;;;;24.30;52.20;;;;;;5029719;28;19983;-67
2021/08/06 14:16:23;;;;;;;;;;;24.10;53.40;;;;;;5030413;28;19917;-68
2021/08/06 14:18:49;;;;;;;;;;;23.80;54.40;;;;;;5030930;28;20274;-68
2021/08/06 14:21:14;;;;;;;;;;;23.60;56.20;;;;;;5031231;28;19975;-69